Time;durP1;ratioP1;P1;durP2;ratioP2;P2;SDS_P1;SDS_P2;PMS_P1;PMS_P2;Temp;Humidity;BMP_temperature;BMP_pressure;BME280_temperature;BME280_humidity;BME280_pressure;Samples;Min_cycle;Max_cycle;Signal;HPM_P1;HPM_P2
2022/12/25 00:01:37;;;;;;;;;;;5.50;99.90;;;;;;5040840;28;19920;-36
2022/12/25 00:04:03;;;;;;;;;;;5.60;99.90;;;;;;5043863;28;19930;-36
2022/12/25 00:06:28;;;;;;;;;;;5.50;99.90;;;;;;5041548;28;19923;-36
2022/12/25 00:08:54;;;;;;;;;;;5.60;99.90;;;;;;5040477;28;19920;-36
2022/12/25 00:11:20;;;;;;;;;;;5.60;99.90;;;;;;5023758;28;19924;-36
2022/12/25 00:13:48;;;;;;;;;;;5.60;99.90;;;;;;5038428;28;20015;-36
2022/12/25 00:16:15;;;;;;;;;;;5.70;99.90;;;;;;5034819;28;19917;-36
2022/12/25 00:18:40;;;;;;;;;;;5.70;99.90;;;;;;5029039;28;19923;-35
2022/12/25 00:21:06;;;;;;;;;;;5.60;99.90;;;;;;5039309;28;20306;-36
2022/12/25 00:23:32;;;;;;;;;;;5.60;99.90;;;;;;5048226;28;19955;-36
2022/12/25 00:25:58;;;;;;;;;;;5.70;99.90;;;;;;5031594;28;20016;-36
2022/12/25 00:28:24;;;;;;;;;;;5.70;99.90;;;;;;5045052;28;20011;-36
2022/12/25 00:30:50;;;;;;;;;;;5.70;99.90;;;;;;5043060;28;19921;-36
2022/12/25 00:33:16;;;;;;;;;;;5.70;99.90;;;;;;5047707;28;19966;-35
2022/12/25 00:35:41;;;;;;;;;;;5.70;99.90;;;;;;5041950;28;19967;-36
2022/12/25 00:38:07;;;;;;;;;;;5.70;99.90;;;;;;5043232;28;19920;-36
2022/12/25 00:40:32;;;;;;;;;;;5.80;99.90;;;;;;5042492;28;20412;-36
2022/12/25 00:42:58;;;;;;;;;;;5.80;99.90;;;;;;5036461;28;19978;-38
2022/12/25 00:45:24;;;;;;;;;;;5.80;99.90;;;;;;5023663;28;19916;-37
2022/12/25 00:47:49;;;;;;;;;;;5.80;99.90;;;;;;5037866;28;20275;-35
2022/12/25 00:50:16;;;;;;;;;;;5.90;99.90;;;;;;5032872;28;20437;-35
2022/12/25 00:52:42;;;;;;;;;;;5.90;99.90;;;;;;5041471;28;19931;-35
2022/12/25 00:55:08;;;;;;;;;;;5.90;99.90;;;;;;5038581;28;19920;-36
2022/12/25 00:57:34;;;;;;;;;;;5.90;99.90;;;;;;5037520;28;19917;-35
2022/12/25 00:59:59;;;;;;;;;;;6.00;99.90;;;;;;5039611;28;19970;-35
2022/12/25 01:02:25;;;;;;;;;;;6.00;99.90;;;;;;5026562;28;20397;-36
2022/12/25 01:04:52;;;;;;;;;;;6.00;99.90;;;;;;5021077;28;19921;-36
2022/12/25 01:07:18;;;;;;;;;;;6.00;99.90;;;;;;5037746;28;20425;-36
2022/12/25 01:12:29;;;;;;;;;;;6.10;99.90;;;;;;5044051;28;19921;-36
2022/12/25 01:14:54;;;;;;;;;;;6.20;99.90;;;;;;5038263;28;19972;-35
2022/12/25 01:17:20;;;;;;;;;;;6.20;99.90;;;;;;5036447;28;20016;-35
2022/12/25 01:19:45;;;;;;;;;;;6.30;99.90;;;;;;5038398;28;19999;-35
2022/12/25 01:22:11;;;;;;;;;;;6.30;99.90;;;;;;5045274;28;19923;-36
2022/12/25 01:24:36;;;;;;;;;;;6.30;99.90;;;;;;5045420;28;20454;-36
2022/12/25 01:27:02;;;;;;;;;;;6.40;99.90;;;;;;5029758;28;19921;-38
2022/12/25 01:29:28;;;;;;;;;;;6.40;99.90;;;;;;5043239;28;19928;-36
2022/12/25 01:31:53;;;;;;;;;;;6.40;99.90;;;;;;5041455;28;20282;-37
2022/12/25 01:34:19;;;;;;;;;;;6.40;99.90;;;;;;5045669;28;19921;-36
2022/12/25 01:36:44;;;;;;;;;;;6.40;99.90;;;;;;5044869;28;19923;-35
2022/12/25 01:39:10;;;;;;;;;;;6.40;99.90;;;;;;5045246;28;19921;-35
2022/12/25 01:41:35;;;;;;;;;;;6.50;99.90;;;;;;5028758;28;19925;-38
2022/12/25 01:44:04;;;;;;;;;;;6.50;99.90;;;;;;5039438;28;19924;-37
2022/12/25 01:46:30;;;;;;;;;;;6.50;99.90;;;;;;5043384;28;19943;-35
2022/12/25 01:49:25;;;;;;;;;;;6.50;99.90;;;;;;5047610;28;19932;-37
2022/12/25 01:51:56;;;;;;;;;;;6.60;99.90;;;;;;5030589;28;19924;-35
2022/12/25 01:54:29;;;;;;;;;;;6.50;99.90;;;;;;5039451;28;19924;-36
2022/12/25 01:56:56;;;;;;;;;;;6.50;99.90;;;;;;5043974;28;20188;-36
2022/12/25 01:59:23;;;;;;;;;;;6.60;99.90;;;;;;5037628;28;19917;-36
2022/12/25 02:01:49;;;;;;;;;;;6.60;99.90;;;;;;5040026;28;20400;-36
2022/12/25 02:04:37;;;;;;;;;;;6.60;99.90;;;;;;5042282;28;20019;-36
2022/12/25 02:07:07;;;;;;;;;;;6.60;99.90;;;;;;5017209;28;19920;-36
2022/12/25 02:09:33;;;;;;;;;;;6.70;99.90;;;;;;5040583;28;19924;-38
2022/12/25 02:11:59;;;;;;;;;;;6.70;99.90;;;;;;5044506;28;19974;-36
2022/12/25 02:14:25;;;;;;;;;;;6.70;99.90;;;;;;5044490;28;19917;-36
2022/12/25 02:16:55;;;;;;;;;;;6.80;99.90;;;;;;5046287;28;19925;-36
2022/12/25 02:19:21;;;;;;;;;;;6.80;99.90;;;;;;5041917;28;19924;-36
2022/12/25 02:21:46;;;;;;;;;;;6.80;99.90;;;;;;5045170;28;19917;-36
2022/12/25 02:24:20;;;;;;;;;;;6.80;99.90;;;;;;5042713;28;19917;-36
2022/12/25 02:26:57;;;;;;;;;;;6.80;99.90;;;;;;5014373;28;19928;-36
2022/12/25 02:29:31;;;;;;;;;;;6.90;99.90;;;;;;5048663;28;19921;-36
2022/12/25 02:32:01;;;;;;;;;;;6.90;99.90;;;;;;5049036;28;20051;-35
2022/12/25 02:34:36;;;;;;;;;;;6.90;99.90;;;;;;5046296;28;20011;-40
2022/12/25 02:37:20;;;;;;;;;;;6.90;99.90;;;;;;5046711;28;19924;-44
2022/12/25 02:40:09;;;;;;;;;;;6.90;99.90;;;;;;5049643;28;19920;-37
2022/12/25 03:07:53;;;;;;;;;;;6.90;99.90;;;;;;4944414;29;19945;-36
2022/12/25 03:13:07;;;;;;;;;;;6.90;99.90;;;;;;5049984;28;19924;-36
2022/12/25 03:18:18;;;;;;;;;;;6.80;99.90;;;;;;5032466;28;20401;-36
2022/12/25 03:28:59;;;;;;;;;;;6.80;99.90;;;;;;5046410;28;19925;-38
2022/12/25 03:31:45;;;;;;;;;;;6.80;99.90;;;;;;5048507;28;19971;-36
2022/12/25 04:37:37;;;;;;;;;;;7.00;99.90;;;;;;5049915;28;19917;-36
2022/12/25 04:40:03;;;;;;;;;;;7.10;99.90;;;;;;5045958;28;19940;-36
2022/12/25 04:42:28;;;;;;;;;;;7.10;99.90;;;;;;5046576;28;20439;-35
2022/12/25 04:44:54;;;;;;;;;;;7.20;99.90;;;;;;5048783;28;20016;-37
2022/12/25 04:47:20;;;;;;;;;;;7.20;99.90;;;;;;5045858;28;19931;-36
2022/12/25 04:49:45;;;;;;;;;;;7.30;99.90;;;;;;5030402;28;20358;-36
2022/12/25 04:52:11;;;;;;;;;;;7.30;99.90;;;;;;5046179;28;20337;-36
2022/12/25 04:54:36;;;;;;;;;;;7.40;99.90;;;;;;5048403;28;19939;-36
2022/12/25 04:57:02;;;;;;;;;;;7.40;99.90;;;;;;5045847;28;19924;-36
2022/12/25 04:59:27;;;;;;;;;;;7.50;99.90;;;;;;5048174;28;20374;-36
2022/12/25 05:01:53;;;;;;;;;;;7.50;99.90;;;;;;5041123;28;20003;-36
2022/12/25 05:04:18;;;;;;;;;;;7.60;99.90;;;;;;5046758;28;19964;-36
2022/12/25 05:06:44;;;;;;;;;;;7.60;99.90;;;;;;5042344;28;19925;-36
2022/12/25 05:09:10;;;;;;;;;;;7.60;99.90;;;;;;5043724;28;19929;-36
2022/12/25 05:11:35;;;;;;;;;;;7.60;99.90;;;;;;5036061;28;19920;-41
2022/12/25 05:14:01;;;;;;;;;;;7.60;99.90;;;;;;5040266;28;19927;-38
2022/12/25 05:16:26;;;;;;;;;;;7.70;99.90;;;;;;5038599;28;19927;-36
2022/12/25 05:18:52;;;;;;;;;;;7.70;99.90;;;;;;5038825;28;19916;-36
2022/12/25 05:21:17;;;;;;;;;;;7.70;99.90;;;;;;5043838;28;19951;-35
2022/12/25 05:23:49;;;;;;;;;;;7.70;99.90;;;;;;5046324;28;19917;-36
2022/12/25 05:26:15;;;;;;;;;;;7.70;99.90;;;;;;5046863;28;19920;-36
2022/12/25 05:28:41;;;;;;;;;;;7.80;99.90;;;;;;5044779;28;20317;-36
2022/12/25 05:31:07;;;;;;;;;;;7.80;99.90;;;;;;5040916;28;19916;-36
2022/12/25 05:33:32;;;;;;;;;;;7.80;99.90;;;;;;5043722;28;20024;-36
2022/12/25 05:36:05;;;;;;;;;;;7.80;99.90;;;;;;5041944;28;19931;-35
2022/12/25 05:38:31;;;;;;;;;;;7.80;99.90;;;;;;5042001;28;21510;-36
2022/12/25 05:40:56;;;;;;;;;;;7.80;99.90;;;;;;5042043;28;19920;-37
2022/12/25 05:43:22;;;;;;;;;;;7.80;99.90;;;;;;5040471;28;19987;-37
2022/12/25 05:45:48;;;;;;;;;;;7.80;99.90;;;;;;5043197;28;20458;-36
2022/12/25 05:48:14;;;;;;;;;;;7.80;99.90;;;;;;5047777;28;19964;-36
2022/12/25 05:50:40;;;;;;;;;;;7.90;99.90;;;;;;5043167;28;20450;-36
2022/12/25 05:53:09;;;;;;;;;;;7.90;99.90;;;;;;5039616;28;19925;-36
2022/12/25 05:55:35;;;;;;;;;;;7.90;99.90;;;;;;5045312;28;20394;-36
2022/12/25 05:58:01;;;;;;;;;;;7.90;99.90;;;;;;5045215;28;20378;-35
2022/12/25 06:00:26;;;;;;;;;;;7.90;99.90;;;;;;5039841;28;19925;-36
2022/12/25 06:02:52;;;;;;;;;;;7.90;99.90;;;;;;5045752;28;20289;-36
2022/12/25 06:05:17;;;;;;;;;;;7.90;99.90;;;;;;5040378;28;19921;-35
2022/12/25 06:07:43;;;;;;;;;;;8.00;99.90;;;;;;5047089;28;19929;-36
2022/12/25 06:10:09;;;;;;;;;;;8.00;99.90;;;;;;5046517;28;19959;-36
2022/12/25 06:12:34;;;;;;;;;;;8.00;99.90;;;;;;5047866;28;20396;-36
2022/12/25 06:15:00;;;;;;;;;;;8.00;99.90;;;;;;5040967;28;19920;-36
2022/12/25 06:17:25;;;;;;;;;;;8.00;99.90;;;;;;5048993;28;20409;-36
2022/12/25 06:19:52;;;;;;;;;;;8.00;99.90;;;;;;5050381;28;19966;-36
2022/12/25 06:22:17;;;;;;;;;;;8.00;99.90;;;;;;5049007;28;20015;-35
2022/12/25 06:24:43;;;;;;;;;;;8.00;99.90;;;;;;5048197;28;20015;-35
2022/12/25 06:27:08;;;;;;;;;;;8.00;99.90;;;;;;5048053;28;19917;-35
2022/12/25 06:29:34;;;;;;;;;;;8.00;99.90;;;;;;5044136;28;19921;-36
2022/12/25 06:31:59;;;;;;;;;;;8.00;99.90;;;;;;5046943;28;19966;-38
2022/12/25 06:34:25;;;;;;;;;;;8.00;99.90;;;;;;5044804;28;19924;-35
2022/12/25 06:36:51;;;;;;;;;;;8.00;99.90;;;;;;5047582;28;20011;-35
2022/12/25 06:39:17;;;;;;;;;;;8.00;99.90;;;;;;5039453;28;19931;-37
2022/12/25 06:41:43;;;;;;;;;;;8.00;99.90;;;;;;5038562;28;20312;-36
2022/12/25 06:44:08;;;;;;;;;;;8.00;99.90;;;;;;5048635;28;19917;-36
2022/12/25 06:46:34;;;;;;;;;;;7.90;99.90;;;;;;5050595;28;20389;-38
2022/12/25 06:48:59;;;;;;;;;;;7.90;99.90;;;;;;5047442;28;19925;-36
2022/12/25 06:51:27;;;;;;;;;;;7.90;99.90;;;;;;5051000;28;19928;-35
2022/12/25 06:53:53;;;;;;;;;;;7.90;99.90;;;;;;5047206;28;19928;-38
2022/12/25 06:56:19;;;;;;;;;;;7.90;99.90;;;;;;5041833;28;20369;-35
2022/12/25 06:58:46;;;;;;;;;;;7.90;99.90;;;;;;5026477;28;20012;-36
2022/12/25 07:01:35;;;;;;;;;;;7.90;99.90;;;;;;5046049;28;19921;-36
2022/12/25 07:04:01;;;;;;;;;;;7.90;99.90;;;;;;5041281;28;20408;-36
2022/12/25 07:06:27;;;;;;;;;;;7.90;99.90;;;;;;5048618;28;19924;-35
2022/12/25 07:08:53;;;;;;;;;;;7.90;99.90;;;;;;5048631;28;19916;-35
2022/12/25 07:11:18;;;;;;;;;;;7.90;99.90;;;;;;5046530;28;19943;-35
2022/12/25 07:13:44;;;;;;;;;;;7.90;99.90;;;;;;5041140;28;19918;-36
2022/12/25 07:16:11;;;;;;;;;;;7.90;99.90;;;;;;5045545;28;19917;-36
2022/12/25 07:18:36;;;;;;;;;;;7.90;99.90;;;;;;5046681;28;20029;-35
2022/12/25 07:21:06;;;;;;;;;;;7.90;99.90;;;;;;5049341;28;19917;-35
2022/12/25 07:23:31;;;;;;;;;;;7.90;99.90;;;;;;5048908;28;19924;-35
2022/12/25 07:25:58;;;;;;;;;;;7.90;99.90;;;;;;5048074;28;19970;-35
2022/12/25 07:28:24;;;;;;;;;;;8.00;99.90;;;;;;5049331;28;20275;-35
2022/12/25 07:30:50;;;;;;;;;;;8.00;99.90;;;;;;5050916;28;19920;-35
2022/12/25 07:33:15;;;;;;;;;;;7.90;99.90;;;;;;5049739;28;20415;-36
2022/12/25 07:35:41;;;;;;;;;;;8.00;99.90;;;;;;5046482;28;19951;-35
2022/12/25 07:38:07;;;;;;;;;;;8.00;99.90;;;;;;5047510;28;20021;-36
2022/12/25 07:40:32;;;;;;;;;;;8.00;99.90;;;;;;5045501;28;19925;-36
2022/12/25 07:42:58;;;;;;;;;;;7.90;99.90;;;;;;5030238;28;19916;-36
2022/12/25 07:45:23;;;;;;;;;;;8.00;99.90;;;;;;5043552;28;19925;-35
2022/12/25 07:47:49;;;;;;;;;;;8.00;99.90;;;;;;5046968;28;20400;-35
2022/12/25 07:50:15;;;;;;;;;;;8.00;99.90;;;;;;5044019;28;19928;-35
2022/12/25 07:52:40;;;;;;;;;;;8.00;99.90;;;;;;5046587;28;20314;-36
2022/12/25 07:55:06;;;;;;;;;;;8.00;99.90;;;;;;5042368;28;19932;-37
2022/12/25 07:57:32;;;;;;;;;;;8.00;99.90;;;;;;5043497;28;19969;-38
2022/12/25 07:59:57;;;;;;;;;;;8.00;99.90;;;;;;5044777;28;20583;-36
2022/12/25 08:02:27;;;;;;;;;;;8.00;99.90;;;;;;5040206;28;21572;-38
2022/12/25 08:04:53;;;;;;;;;;;8.00;99.90;;;;;;5041106;28;19924;-36
2022/12/25 08:07:18;;;;;;;;;;;8.00;99.90;;;;;;5047275;28;19916;-35
2022/12/25 08:09:44;;;;;;;;;;;8.00;99.90;;;;;;5046521;28;19966;-35
2022/12/25 08:12:09;;;;;;;;;;;8.00;99.90;;;;;;5036290;28;19920;-35
2022/12/25 08:14:35;;;;;;;;;;;8.00;99.90;;;;;;5049078;28;19927;-35
2022/12/25 08:17:00;;;;;;;;;;;7.90;99.90;;;;;;5045838;28;19925;-35
2022/12/25 08:19:27;;;;;;;;;;;7.90;99.90;;;;;;5046210;28;19955;-35
2022/12/25 08:21:53;;;;;;;;;;;7.90;99.90;;;;;;5042234;28;20011;-36
2022/12/25 08:24:19;;;;;;;;;;;7.90;99.90;;;;;;5046528;28;20384;-35
2022/12/25 08:26:44;;;;;;;;;;;7.90;99.90;;;;;;5045458;28;19917;-36
2022/12/25 08:29:10;;;;;;;;;;;7.90;99.90;;;;;;5046080;28;19924;-36
2022/12/25 08:31:36;;;;;;;;;;;7.90;99.90;;;;;;5042112;28;20370;-35
2022/12/25 08:34:02;;;;;;;;;;;7.90;99.90;;;;;;5025068;28;19929;-36
2022/12/25 08:36:28;;;;;;;;;;;7.90;99.90;;;;;;5042230;28;19923;-36
2022/12/25 08:38:54;;;;;;;;;;;7.90;99.90;;;;;;5039660;28;20003;-36
2022/12/25 08:41:19;;;;;;;;;;;7.90;99.90;;;;;;5045489;28;19924;-36
2022/12/25 08:43:45;;;;;;;;;;;7.90;99.90;;;;;;5025417;28;19916;-36
2022/12/25 08:46:10;;;;;;;;;;;7.90;99.90;;;;;;5029375;28;20170;-35
2022/12/25 08:48:36;;;;;;;;;;;7.90;99.90;;;;;;5039481;28;19932;-37
2022/12/25 08:51:01;;;;;;;;;;;7.90;99.90;;;;;;5034874;28;19950;-36
2022/12/25 08:53:27;;;;;;;;;;;7.90;99.90;;;;;;5040698;28;20011;-38
2022/12/25 08:55:56;;;;;;;;;;;7.90;99.90;;;;;;5040953;28;19927;-35
2022/12/25 08:58:22;;;;;;;;;;;8.00;99.90;;;;;;5034439;28;19925;-36
2022/12/25 09:00:48;;;;;;;;;;;8.00;99.90;;;;;;5034478;28;19925;-35
2022/12/25 09:03:13;;;;;;;;;;;8.00;99.90;;;;;;5022376;28;19916;-51
2022/12/25 09:05:39;;;;;;;;;;;8.00;99.90;;;;;;5030612;28;19928;-37
2022/12/25 09:08:04;;;;;;;;;;;8.00;99.90;;;;;;5037785;28;20011;-35
2022/12/25 09:10:30;;;;;;;;;;;8.00;99.90;;;;;;5036845;28;19960;-38
2022/12/25 09:12:56;;;;;;;;;;;7.90;99.90;;;;;;5038113;28;20035;-37
2022/12/25 09:15:21;;;;;;;;;;;8.00;99.90;;;;;;5039935;28;19924;-37
2022/12/25 09:17:47;;;;;;;;;;;7.90;99.90;;;;;;5037857;28;19921;-35
2022/12/25 09:20:12;;;;;;;;;;;8.00;99.90;;;;;;5033948;28;19917;-36
2022/12/25 09:22:38;;;;;;;;;;;7.90;99.90;;;;;;5034307;28;20371;-36
2022/12/25 09:25:04;;;;;;;;;;;8.00;99.90;;;;;;5040362;28;19916;-36
2022/12/25 09:27:29;;;;;;;;;;;7.90;99.90;;;;;;5038465;28;19916;-36
2022/12/25 09:29:55;;;;;;;;;;;8.00;99.90;;;;;;5042630;28;20334;-39
2022/12/25 09:32:20;;;;;;;;;;;8.00;99.90;;;;;;5039528;28;19921;-41
2022/12/25 09:34:46;;;;;;;;;;;8.00;99.90;;;;;;5033313;28;20321;-38
2022/12/25 09:37:11;;;;;;;;;;;8.00;99.90;;;;;;5034405;28;19951;-37
2022/12/25 09:39:37;;;;;;;;;;;8.00;99.90;;;;;;5036400;28;19928;-40
2022/12/25 09:42:30;;;;;;;;;;;8.00;99.90;;;;;;5038847;28;19920;-38
2022/12/25 09:44:59;;;;;;;;;;;8.00;99.90;;;;;;5036036;28;19966;-48
2022/12/25 09:47:26;;;;;;;;;;;8.10;99.90;;;;;;5044501;28;20389;-37
2022/12/25 09:49:55;;;;;;;;;;;8.00;99.90;;;;;;5038364;28;20015;-37
2022/12/25 09:52:24;;;;;;;;;;;8.10;99.90;;;;;;5037005;28;19951;-37
2022/12/25 09:55:05;;;;;;;;;;;8.10;99.90;;;;;;5038101;28;19971;-37
2022/12/25 09:57:31;;;;;;;;;;;8.10;99.90;;;;;;5037392;28;19920;-43
2022/12/25 09:59:57;;;;;;;;;;;8.10;99.90;;;;;;5043621;28;19920;-37
2022/12/25 10:02:32;;;;;;;;;;;8.10;99.90;;;;;;5037890;28;19921;-49
2022/12/25 10:05:04;;;;;;;;;;;8.10;99.90;;;;;;5038732;28;19921;-36
2022/12/25 10:07:35;;;;;;;;;;;8.10;99.90;;;;;;5040459;28;20337;-55
2022/12/25 10:10:03;;;;;;;;;;;8.10;99.90;;;;;;5044760;28;20381;-38
2022/12/25 10:12:48;;;;;;;;;;;8.20;99.90;;;;;;5037841;28;20026;-38
2022/12/25 10:15:21;;;;;;;;;;;8.20;99.90;;;;;;5036761;28;20432;-37
2022/12/25 10:17:53;;;;;;;;;;;8.20;99.90;;;;;;5039415;28;19917;-37
2022/12/25 10:20:18;;;;;;;;;;;8.20;99.90;;;;;;5038722;28;19929;-37
2022/12/25 10:22:46;;;;;;;;;;;8.20;99.90;;;;;;5035083;28;19917;-37
2022/12/25 10:25:19;;;;;;;;;;;8.30;99.90;;;;;;5039249;28;19930;-37
2022/12/25 10:27:46;;;;;;;;;;;8.30;99.90;;;;;;5039248;28;20004;-38
2022/12/25 10:30:16;;;;;;;;;;;8.30;99.90;;;;;;5040795;28;20278;-38
2022/12/25 10:32:43;;;;;;;;;;;8.30;99.90;;;;;;5039522;28;21408;-38
2022/12/25 10:35:16;;;;;;;;;;;8.30;99.90;;;;;;5036616;28;19923;-37
2022/12/25 10:37:43;;;;;;;;;;;8.30;99.90;;;;;;5034368;28;20421;-37
2022/12/25 10:40:27;;;;;;;;;;;8.40;99.90;;;;;;5028710;28;19939;-37
2022/12/25 10:43:19;;;;;;;;;;;8.50;99.90;;;;;;5041159;28;19920;-37
2022/12/25 10:45:45;;;;;;;;;;;8.50;99.90;;;;;;5010507;28;20066;-37
2022/12/25 10:48:31;;;;;;;;;;;8.60;99.90;;;;;;5033350;28;19932;-38
2022/12/25 10:50:57;;;;;;;;;;;8.50;99.90;;;;;;5046643;28;19921;-41
2022/12/25 10:53:26;;;;;;;;;;;8.60;99.90;;;;;;5035361;28;19921;-38
2022/12/25 10:55:53;;;;;;;;;;;8.60;99.90;;;;;;5041195;28;19921;-38
2022/12/25 10:58:19;;;;;;;;;;;8.60;99.90;;;;;;5041148;28;19974;-37
2022/12/25 11:00:50;;;;;;;;;;;8.60;99.90;;;;;;5037437;28;19932;-38
2022/12/25 11:03:21;;;;;;;;;;;8.60;99.90;;;;;;5027808;28;19921;-41
2022/12/25 11:05:49;;;;;;;;;;;8.60;99.90;;;;;;5039016;28;19924;-38
2022/12/25 11:08:18;;;;;;;;;;;8.60;99.90;;;;;;5044125;28;19982;-38
2022/12/25 11:10:50;;;;;;;;;;;8.60;99.90;;;;;;5042556;28;19984;-39
2022/12/25 11:13:23;;;;;;;;;;;8.60;99.90;;;;;;5034895;28;19944;-37
2022/12/25 11:15:49;;;;;;;;;;;8.60;99.90;;;;;;5040282;28;19924;-38
2022/12/25 11:18:22;;;;;;;;;;;8.60;99.90;;;;;;5034718;28;19917;-37
2022/12/25 11:20:49;;;;;;;;;;;8.60;99.90;;;;;;5041420;28;19921;-38
2022/12/25 11:23:16;;;;;;;;;;;8.60;99.90;;;;;;5043514;28;19967;-39
2022/12/25 11:25:42;;;;;;;;;;;8.70;99.90;;;;;;5018821;28;20344;-37
2022/12/25 11:28:09;;;;;;;;;;;8.70;99.90;;;;;;5023036;28;20063;-49
2022/12/25 11:30:35;;;;;;;;;;;8.80;99.90;;;;;;5036559;28;19928;-37
2022/12/25 11:33:05;;;;;;;;;;;8.80;99.90;;;;;;5037486;28;19921;-40
2022/12/25 11:35:36;;;;;;;;;;;8.80;99.90;;;;;;5038247;28;19925;-39
2022/12/25 11:38:02;;;;;;;;;;;8.90;99.90;;;;;;5034686;28;19925;-37
2022/12/25 11:40:33;;;;;;;;;;;8.90;99.90;;;;;;5039738;28;19921;-38
2022/12/25 11:43:04;;;;;;;;;;;8.90;99.90;;;;;;5043258;28;20401;-37
2022/12/25 11:45:37;;;;;;;;;;;8.90;99.90;;;;;;5024814;28;19939;-38
2022/12/25 11:48:03;;;;;;;;;;;8.90;99.90;;;;;;5041896;28;20005;-39
2022/12/25 11:50:41;;;;;;;;;;;8.90;99.90;;;;;;5037005;28;20019;-37
2022/12/25 11:53:26;;;;;;;;;;;8.90;99.90;;;;;;5035970;28;19921;-40
2022/12/25 11:55:54;;;;;;;;;;;8.90;99.90;;;;;;5042411;28;19967;-37
2022/12/25 11:58:29;;;;;;;;;;;8.90;99.90;;;;;;5043893;28;19924;-37
2022/12/25 12:00:56;;;;;;;;;;;8.90;99.90;;;;;;5034843;28;19917;-37
2022/12/25 12:03:28;;;;;;;;;;;8.90;99.90;;;;;;5037702;28;19920;-37
2022/12/25 12:05:58;;;;;;;;;;;8.90;99.90;;;;;;5039155;28;19928;-48
2022/12/25 12:08:24;;;;;;;;;;;8.90;99.90;;;;;;5038840;28;19921;-38
2022/12/25 12:11:14;;;;;;;;;;;8.90;99.90;;;;;;5041245;28;20027;-37
2022/12/25 12:13:43;;;;;;;;;;;8.90;99.90;;;;;;5034403;28;19930;-37
2022/12/25 12:16:09;;;;;;;;;;;8.80;99.90;;;;;;5018814;28;20369;-38
2022/12/25 12:18:35;;;;;;;;;;;8.80;99.90;;;;;;5037771;28;21112;-41
2022/12/25 12:21:00;;;;;;;;;;;8.90;99.90;;;;;;5027600;28;20354;-37
2022/12/25 12:23:27;;;;;;;;;;;8.90;99.90;;;;;;4983118;28;20043;-37
2022/12/25 12:25:52;;;;;;;;;;;8.90;99.90;;;;;;4996683;28;20305;-39
2022/12/25 12:28:30;;;;;;;;;;;8.90;99.90;;;;;;4997901;28;19921;-40
2022/12/25 12:31:01;;;;;;;;;;;8.90;99.90;;;;;;4972708;28;20414;-39
2022/12/25 12:33:29;;;;;;;;;;;8.90;99.90;;;;;;4999710;28;19929;-39
2022/12/25 12:35:54;;;;;;;;;;;8.90;99.90;;;;;;4995932;28;19964;-37
2022/12/25 12:38:21;;;;;;;;;;;8.90;99.90;;;;;;4999607;28;19943;-41
2022/12/25 12:40:52;;;;;;;;;;;8.90;99.90;;;;;;4988286;28;19918;-37
2022/12/25 12:43:35;;;;;;;;;;;8.90;99.90;;;;;;4999501;28;19921;-38
2022/12/25 12:46:05;;;;;;;;;;;8.90;99.90;;;;;;4995214;28;19928;-39
2022/12/25 12:48:37;;;;;;;;;;;8.90;99.90;;;;;;5001943;28;19925;-38
2022/12/25 12:51:04;;;;;;;;;;;8.90;99.90;;;;;;4998072;28;19933;-38
2022/12/25 12:53:30;;;;;;;;;;;8.80;99.90;;;;;;4998226;28;20427;-37
2022/12/25 12:56:07;;;;;;;;;;;8.80;99.90;;;;;;4992605;28;20445;-38
2022/12/25 12:58:34;;;;;;;;;;;8.80;99.90;;;;;;5000359;28;19928;-38
2022/12/25 13:00:59;;;;;;;;;;;8.80;99.90;;;;;;4994887;28;19922;-37
2022/12/25 13:03:40;;;;;;;;;;;8.80;99.90;;;;;;4995810;28;19948;-36
2022/12/25 13:06:12;;;;;;;;;;;8.80;99.90;;;;;;5000613;28;19921;-43
2022/12/25 13:08:55;;;;;;;;;;;8.80;99.90;;;;;;4984136;28;20406;-37
2022/12/25 13:11:25;;;;;;;;;;;8.80;99.90;;;;;;4998645;28;20067;-39
2022/12/25 13:13:51;;;;;;;;;;;8.80;99.90;;;;;;4984483;28;19921;-40
2022/12/25 13:16:33;;;;;;;;;;;8.80;99.90;;;;;;5008462;28;19917;-38
2022/12/25 13:19:02;;;;;;;;;;;8.80;99.90;;;;;;5001214;28;19975;-39
2022/12/25 13:21:28;;;;;;;;;;;8.80;99.90;;;;;;5004385;28;20573;-37
2022/12/25 13:23:55;;;;;;;;;;;8.70;99.90;;;;;;5000641;28;19932;-40
2022/12/25 13:26:20;;;;;;;;;;;8.70;99.90;;;;;;4997000;28;19944;-38
2022/12/25 13:28:46;;;;;;;;;;;8.70;99.90;;;;;;4992693;28;20374;-37
2022/12/25 13:31:12;;;;;;;;;;;8.70;99.90;;;;;;5002017;28;20011;-38
2022/12/25 13:33:38;;;;;;;;;;;8.70;99.90;;;;;;4994087;28;19921;-37
2022/12/25 13:36:08;;;;;;;;;;;8.70;99.90;;;;;;5000109;28;20355;-37
2022/12/25 13:38:33;;;;;;;;;;;8.70;99.90;;;;;;5004071;28;19925;-38
2022/12/25 13:43:44;;;;;;;;;;;8.70;99.90;;;;;;4991756;28;19925;-39
2022/12/25 13:46:13;;;;;;;;;;;8.70;99.90;;;;;;5004125;28;19921;-38
2022/12/25 13:48:39;;;;;;;;;;;8.70;99.90;;;;;;4968640;28;20234;-37
2022/12/25 13:51:04;;;;;;;;;;;8.70;99.90;;;;;;5003805;28;19936;-41
2022/12/25 13:53:30;;;;;;;;;;;8.60;99.90;;;;;;5001041;28;19931;-39
2022/12/25 13:55:57;;;;;;;;;;;8.60;99.90;;;;;;4998832;28;19928;-38
2022/12/25 13:58:26;;;;;;;;;;;8.60;99.90;;;;;;4996581;28;19933;-37
2022/12/25 14:00:52;;;;;;;;;;;8.60;99.90;;;;;;4993300;28;20000;-42
2022/12/25 14:03:18;;;;;;;;;;;8.60;99.90;;;;;;4996450;28;20766;-43
2022/12/25 14:05:43;;;;;;;;;;;8.60;99.90;;;;;;4993086;28;19933;-38
2022/12/25 14:08:18;;;;;;;;;;;8.60;99.90;;;;;;5009424;28;19943;-38
2022/12/25 14:10:44;;;;;;;;;;;8.60;99.90;;;;;;4993529;28;19921;-37
2022/12/25 14:13:11;;;;;;;;;;;8.60;99.90;;;;;;4996026;28;19959;-38
2022/12/25 14:15:37;;;;;;;;;;;8.60;99.90;;;;;;4993048;28;20286;-37
2022/12/25 14:18:03;;;;;;;;;;;8.60;99.90;;;;;;4998740;28;19917;-37
2022/12/25 14:20:37;;;;;;;;;;;8.60;99.90;;;;;;4999415;28;20416;-38
2022/12/25 14:23:03;;;;;;;;;;;8.60;99.90;;;;;;4993734;28;19925;-38
2022/12/25 14:25:32;;;;;;;;;;;8.60;99.90;;;;;;4999692;28;19956;-38
2022/12/25 14:28:06;;;;;;;;;;;8.60;99.90;;;;;;5000306;28;20268;-39
2022/12/25 14:30:33;;;;;;;;;;;8.60;99.90;;;;;;4997647;28;19933;-37
2022/12/25 14:33:01;;;;;;;;;;;8.60;99.90;;;;;;5001575;28;19917;-37
2022/12/25 14:35:27;;;;;;;;;;;8.60;99.90;;;;;;5000932;28;19924;-37
2022/12/25 14:37:55;;;;;;;;;;;8.60;99.90;;;;;;5002309;28;20294;-37
2022/12/25 14:40:23;;;;;;;;;;;8.60;99.90;;;;;;5002656;28;20016;-38
2022/12/25 14:43:00;;;;;;;;;;;8.60;99.90;;;;;;5007649;28;19925;-37
2022/12/25 14:45:37;;;;;;;;;;;8.60;99.90;;;;;;5008509;28;19922;-38
2022/12/25 14:48:17;;;;;;;;;;;8.60;99.90;;;;;;4999020;28;20224;-37
2022/12/25 14:50:50;;;;;;;;;;;8.60;99.90;;;;;;5001244;28;20016;-37
2022/12/25 14:53:18;;;;;;;;;;;8.60;99.90;;;;;;4999503;28;19921;-37
2022/12/25 14:55:51;;;;;;;;;;;8.60;99.90;;;;;;5002854;28;19917;-38
2022/12/25 14:58:21;;;;;;;;;;;8.60;99.90;;;;;;5003620;28;19980;-37
2022/12/25 15:00:55;;;;;;;;;;;8.60;99.90;;;;;;5000494;28;19921;-38
2022/12/25 15:03:31;;;;;;;;;;;8.50;99.90;;;;;;4999957;28;20007;-39
2022/12/25 15:05:58;;;;;;;;;;;8.50;99.90;;;;;;5002291;28;20363;-38
2022/12/25 15:08:24;;;;;;;;;;;8.60;99.90;;;;;;4999529;28;20286;-37
2022/12/25 15:10:50;;;;;;;;;;;8.60;99.90;;;;;;5000136;28;19925;-38
2022/12/25 15:13:18;;;;;;;;;;;8.60;99.90;;;;;;4996975;28;20023;-38
2022/12/25 15:15:53;;;;;;;;;;;8.60;99.90;;;;;;4997347;28;19921;-38
2022/12/25 15:18:21;;;;;;;;;;;8.60;99.90;;;;;;5002753;28;20385;-37
2022/12/25 15:20:47;;;;;;;;;;;8.50;99.90;;;;;;4999318;28;19921;-37
2022/12/25 15:23:14;;;;;;;;;;;8.60;99.90;;;;;;5002816;28;19923;-37
2022/12/25 15:25:40;;;;;;;;;;;8.60;99.90;;;;;;4997898;28;19963;-38
2022/12/25 15:28:08;;;;;;;;;;;8.50;99.90;;;;;;4999822;28;19929;-37
2022/12/25 15:30:36;;;;;;;;;;;8.60;99.90;;;;;;5004698;28;19929;-37
2022/12/25 15:33:02;;;;;;;;;;;8.60;99.90;;;;;;5004402;28;19927;-37
2022/12/25 15:35:28;;;;;;;;;;;8.50;99.90;;;;;;4995391;28;19917;-39
2022/12/25 15:37:53;;;;;;;;;;;8.60;99.90;;;;;;5004329;28;19918;-37
2022/12/25 15:40:20;;;;;;;;;;;8.60;99.90;;;;;;5008005;28;19922;-37
2022/12/25 15:42:46;;;;;;;;;;;8.60;99.90;;;;;;5008010;28;19925;-37
2022/12/25 15:45:18;;;;;;;;;;;8.60;99.90;;;;;;5002511;28;19921;-37
2022/12/25 15:47:43;;;;;;;;;;;8.50;99.90;;;;;;5004369;28;19917;-38
2022/12/25 15:50:09;;;;;;;;;;;8.50;99.90;;;;;;5012352;28;20473;-37
2022/12/25 15:52:34;;;;;;;;;;;8.50;99.90;;;;;;5007073;28;19925;-36
2022/12/25 15:55:00;;;;;;;;;;;8.50;99.90;;;;;;5005006;28;20015;-38
2022/12/25 15:57:25;;;;;;;;;;;8.50;99.90;;;;;;5003211;28;19921;-38
2022/12/25 15:59:51;;;;;;;;;;;8.50;99.90;;;;;;5009853;28;19924;-37
2022/12/25 16:02:18;;;;;;;;;;;8.50;99.90;;;;;;5004378;28;19918;-36
2022/12/25 16:04:43;;;;;;;;;;;8.50;99.90;;;;;;5006136;28;19920;-36
2022/12/25 16:07:13;;;;;;;;;;;8.50;99.90;;;;;;4996465;28;20465;-40
2022/12/25 16:09:38;;;;;;;;;;;8.50;99.90;;;;;;5011975;28;19921;-37
2022/12/25 16:12:04;;;;;;;;;;;8.50;99.90;;;;;;4980096;28;19927;-42
2022/12/25 16:14:30;;;;;;;;;;;8.50;99.90;;;;;;4982125;28;19921;-40
2022/12/25 16:16:55;;;;;;;;;;;8.50;99.90;;;;;;5008100;28;19960;-38
2022/12/25 16:19:21;;;;;;;;;;;8.50;99.90;;;;;;4999981;28;19926;-39
2022/12/25 16:21:47;;;;;;;;;;;8.50;99.90;;;;;;5002759;28;19918;-36
2022/12/25 16:24:13;;;;;;;;;;;8.50;99.90;;;;;;4998708;28;19933;-40